sensor_id;sensor_type;location;lat;lon;timestamp;pressure;altitude;pressure_sealevel;temperature;humidity
28310;BME280;15571;50.974;13.936;2023-02-11T00:00:15;101788.97;;;0.20;100.00
28310;BME280;15571;50.974;13.936;2023-02-11T00:03:17;101788.81;;;0.17;100.00
28310;BME280;15571;50.974;13.936;2023-02-11T00:06:19;101788.81;;;0.17;100.00
28310;BME280;15571;50.974;13.936;2023-02-11T00:09:26;101788.81;;;0.17;100.00
28310;BME280;15571;50.974;13.936;2023-02-11T00:12:37;101781.88;;;0.15;100.00
28310;BME280;15571;50.974;13.936;2023-02-11T00:15:42;101777.31;;;0.11;100.00
28310;BME280;15571;50.974;13.936;2023-02-11T00:18:44;101767.66;;;0.07;100.00
28310;BME280;15571;50.974;13.936;2023-02-11T00:21:46;101762.59;;;0.09;100.00
28310;BME280;15571;50.974;13.936;2023-02-11T00:24:50;101759.13;;;0.08;100.00
28310;BME280;15571;50.974;13.936;2023-02-11T00:27:55;101759.22;;;0.10;100.00
28310;BME280;15571;50.974;13.936;2023-02-11T00:30:56;101757.34;;;0.07;100.00
28310;BME280;15571;50.974;13.936;2023-02-11T00:34:01;101750.41;;;0.06;100.00
28310;BME280;15571;50.974;13.936;2023-02-11T00:37:06;101741.91;;;0.07;100.00
28310;BME280;15571;50.974;13.936;2023-02-11T00:40:10;101736.13;;;0.11;100.00
28310;BME280;15571;50.974;13.936;2023-02-11T00:43:12;101720.78;;;0.13;100.00
28310;BME280;15571;50.974;13.936;2023-02-11T00:46:17;101714.94;;;0.15;100.00
28310;BME280;15571;50.974;13.936;2023-02-11T00:49:19;101723.63;;;0.18;100.00
28310;BME280;15571;50.974;13.936;2023-02-11T00:52:22;101723.63;;;0.18;100.00
28310;BME280;15571;50.974;13.936;2023-02-11T00:55:25;101716.72;;;0.17;100.00
28310;BME280;15571;50.974;13.936;2023-02-11T00:58:27;101717.69;;;0.19;100.00
28310;BME280;15571;50.974;13.936;2023-02-11T01:01:29;101701.41;;;0.20;100.00
28310;BME280;15571;50.974;13.936;2023-02-11T01:04:31;101690.31;;;0.21;100.00
28310;BME280;15571;50.974;13.936;2023-02-11T01:07:33;101689.53;;;0.22;100.00
28310;BME280;15571;50.974;13.936;2023-02-11T01:10:36;101685.28;;;0.22;100.00
28310;BME280;15571;50.974;13.936;2023-02-11T01:13:38;101661.31;;;0.23;100.00
28310;BME280;15571;50.974;13.936;2023-02-11T01:16:43;101669.13;;;0.25;100.00
28310;BME280;15571;50.974;13.936;2023-02-11T01:19:47;101670.91;;;0.26;100.00
28310;BME280;15571;50.974;13.936;2023-02-11T01:22:49;101676.25;;;0.29;100.00
28310;BME280;15571;50.974;13.936;2023-02-11T01:25:55;101669.41;;;0.29;100.00
28310;BME280;15571;50.974;13.936;2023-02-11T01:28:58;101673.69;;;0.29;100.00
28310;BME280;15571;50.974;13.936;2023-02-11T01:32:01;101672.84;;;0.30;100.00
28310;BME280;15571;50.974;13.936;2023-02-11T01:35:03;101675.53;;;0.32;100.00
28310;BME280;15571;50.974;13.936;2023-02-11T01:38:05;101684.13;;;0.32;100.00
28310;BME280;15571;50.974;13.936;2023-02-11T01:41:09;101683.34;;;0.33;100.00
28310;BME280;15571;50.974;13.936;2023-02-11T01:44:23;101704.03;;;0.35;100.00
28310;BME280;15571;50.974;13.936;2023-02-11T01:47:27;101687.91;;;0.37;100.00
28310;BME280;15571;50.974;13.936;2023-02-11T01:50:31;101683.69;;;0.39;100.00
28310;BME280;15571;50.974;13.936;2023-02-11T01:53:35;101673.38;;;0.39;100.00
28310;BME280;15571;50.974;13.936;2023-02-11T01:56:58;101671.81;;;0.41;100.00
28310;BME280;15571;50.974;13.936;2023-02-11T02:00:18;101652.97;;;0.42;100.00
28310;BME280;15571;50.974;13.936;2023-02-11T02:03:23;101654.75;;;0.43;100.00
28310;BME280;15571;50.974;13.936;2023-02-11T02:06:27;101646.31;;;0.46;100.00
28310;BME280;15571;50.974;13.936;2023-02-11T02:09:33;101646.41;;;0.48;100.00
28310;BME280;15571;50.974;13.936;2023-02-11T02:12:39;101637.91;;;0.49;100.00
28310;BME280;15571;50.974;13.936;2023-02-11T02:15:43;101625.00;;;0.49;100.00
28310;BME280;15571;50.974;13.936;2023-02-11T02:18:50;101626.88;;;0.51;100.00
28310;BME280;15571;50.974;13.936;2023-02-11T02:22:01;101625.16;;;0.52;100.00
28310;BME280;15571;50.974;13.936;2023-02-11T02:25:18;101627.13;;;0.56;100.00
28310;BME280;15571;50.974;13.936;2023-02-11T02:28:40;101629.00;;;0.58;100.00
28310;BME280;15571;50.974;13.936;2023-02-11T02:31:50;101627.47;;;0.62;100.00
28310;BME280;15571;50.974;13.936;2023-02-11T02:35:00;101635.41;;;0.65;100.00
28310;BME280;15571;50.974;13.936;2023-02-11T02:38:10;101624.44;;;0.69;100.00
28310;BME280;15571;50.974;13.936;2023-02-11T02:41:13;101630.59;;;0.71;100.00
28310;BME280;15571;50.974;13.936;2023-02-11T02:44:16;101622.97;;;0.73;100.00
28310;BME280;15571;50.974;13.936;2023-02-11T02:47:18;101604.19;;;0.75;100.00
28310;BME280;15571;50.974;13.936;2023-02-11T02:50:23;101608.69;;;0.80;100.00
28310;BME280;15571;50.974;13.936;2023-02-11T02:53:31;101607.09;;;0.82;100.00
28310;BME280;15571;50.974;13.936;2023-02-11T02:56:42;101600.34;;;0.84;100.00
28310;BME280;15571;50.974;13.936;2023-02-11T02:59:55;101598.75;;;0.86;100.00
28310;BME280;15571;50.974;13.936;2023-02-11T03:03:11;101591.16;;;0.89;100.00
28310;BME280;15571;50.974;13.936;2023-02-11T03:06:22;101590.38;;;0.90;100.00
28310;BME280;15571;50.974;13.936;2023-02-11T03:09:28;101600.06;;;0.94;100.00
28310;BME280;15571;50.974;13.936;2023-02-11T03:12:32;101592.34;;;0.94;100.00
28310;BME280;15571;50.974;13.936;2023-02-11T03:15:36;101608.84;;;0.98;100.00
28310;BME280;15571;50.974;13.936;2023-02-11T03:18:40;101609.72;;;0.98;100.00
28310;BME280;15571;50.974;13.936;2023-02-11T03:21:44;101611.50;;;0.99;100.00
28310;BME280;15571;50.974;13.936;2023-02-11T03:24:47;101602.19;;;1.01;100.00
28310;BME280;15571;50.974;13.936;2023-02-11T03:27:51;101597.94;;;1.02;100.00
28310;BME280;15571;50.974;13.936;2023-02-11T03:30:54;101587.69;;;1.03;100.00
28310;BME280;15571;50.974;13.936;2023-02-11T03:34:00;101592.84;;;1.03;100.00
28310;BME280;15571;50.974;13.936;2023-02-11T03:37:06;101571.47;;;1.06;100.00
28310;BME280;15571;50.974;13.936;2023-02-11T03:40:10;101560.38;;;1.07;100.00
28310;BME280;15571;50.974;13.936;2023-02-11T03:43:14;101559.63;;;1.09;100.00
28310;BME280;15571;50.974;13.936;2023-02-11T03:46:21;101559.75;;;1.11;100.00
28310;BME280;15571;50.974;13.936;2023-02-11T03:49:24;101559.03;;;1.14;100.00
28310;BME280;15571;50.974;13.936;2023-02-11T03:52:30;101552.25;;;1.16;100.00
28310;BME280;15571;50.974;13.936;2023-02-11T03:55:33;101549.03;;;1.20;100.00
28310;BME280;15571;50.974;13.936;2023-02-11T03:58:37;101544.91;;;1.23;100.00
28310;BME280;15571;50.974;13.936;2023-02-11T04:01:39;101548.56;;;1.27;100.00
28310;BME280;15571;50.974;13.936;2023-02-11T04:04:41;101536.72;;;1.31;100.00
28310;BME280;15571;50.974;13.936;2023-02-11T04:07:44;101530.03;;;1.34;100.00
28310;BME280;15571;50.974;13.936;2023-02-11T04:10:46;101520.69;;;1.36;100.00
28310;BME280;15571;50.974;13.936;2023-02-11T04:13:48;101508.72;;;1.38;100.00
28310;BME280;15571;50.974;13.936;2023-02-11T04:16:50;101523.50;;;1.41;100.00
28310;BME280;15571;50.974;13.936;2023-02-11T04:19:52;101523.66;;;1.44;100.00
28310;BME280;15571;50.974;13.936;2023-02-11T04:22:56;101526.31;;;1.46;100.00
28310;BME280;15571;50.974;13.936;2023-02-11T04:25:57;101537.75;;;1.51;100.00
28310;BME280;15571;50.974;13.936;2023-02-11T04:28:59;101519.06;;;1.55;100.00
28310;BME280;15571;50.974;13.936;2023-02-11T04:32:01;101521.78;;;1.58;100.00
28310;BME280;15571;50.974;13.936;2023-02-11T04:35:03;101515.09;;;1.62;100.00
28310;BME280;15571;50.974;13.936;2023-02-11T04:38:10;101512.03;;;1.69;100.00
28310;BME280;15571;50.974;13.936;2023-02-11T04:41:12;101513.38;;;1.79;100.00
28310;BME280;15571;50.974;13.936;2023-02-11T04:44:15;101523.88;;;1.82;100.00
28310;BME280;15571;50.974;13.936;2023-02-11T04:47:17;101529.34;;;1.88;100.00
28310;BME280;15571;50.974;13.936;2023-02-11T04:50:19;101532.25;;;1.94;100.00
28310;BME280;15571;50.974;13.936;2023-02-11T04:53:24;101536.91;;;2.01;100.00
28310;BME280;15571;50.974;13.936;2023-02-11T04:56:29;101540.69;;;2.08;100.00
28310;BME280;15571;50.974;13.936;2023-02-11T04:59:31;101545.34;;;2.15;100.00
28310;BME280;15571;50.974;13.936;2023-02-11T05:02:33;101548.09;;;2.18;100.00
28310;BME280;15571;50.974;13.936;2023-02-11T05:05:36;101548.31;;;2.23;100.00
28310;BME280;15571;50.974;13.936;2023-02-11T05:08:40;101543.50;;;2.31;100.00
28310;BME280;15571;50.974;13.936;2023-02-11T05:11:47;101542.94;;;2.37;100.00
28310;BME280;15571;50.974;13.936;2023-02-11T05:14:49;101543.09;;;2.40;100.00
28310;BME280;15571;50.974;13.936;2023-02-11T05:17:56;101549.22;;;2.42;100.00
28310;BME280;15571;50.974;13.936;2023-02-11T05:21:04;101559.84;;;2.48;100.00
28310;BME280;15571;50.974;13.936;2023-02-11T05:24:08;101555.00;;;2.54;100.00
28310;BME280;15571;50.974;13.936;2023-02-11T05:27:10;101553.44;;;2.58;100.00
28310;BME280;15571;50.974;13.936;2023-02-11T05:30:12;101544.16;;;2.61;100.00
28310;BME280;15571;50.974;13.936;2023-02-11T05:33:14;101549.47;;;2.64;100.00
28310;BME280;15571;50.974;13.936;2023-02-11T05:36:17;101541.78;;;2.66;100.00
28310;BME280;15571;50.974;13.936;2023-02-11T05:39:21;101545.09;;;2.63;100.00
28310;BME280;15571;50.974;13.936;2023-02-11T05:42:23;101532.47;;;2.70;100.00
28310;BME280;15571;50.974;13.936;2023-02-11T05:45:26;101533.50;;;2.73;100.00
28310;BME280;15571;50.974;13.936;2023-02-11T05:48:27;101534.41;;;2.74;100.00
28310;BME280;15571;50.974;13.936;2023-02-11T05:51:29;101532.91;;;2.79;100.00
28310;BME280;15571;50.974;13.936;2023-02-11T05:54:33;101534.47;;;2.75;100.00
28310;BME280;15571;50.974;13.936;2023-02-11T05:57:35;101532.16;;;2.82;100.00
28310;BME280;15571;50.974;13.936;2023-02-11T06:00:40;101534.84;;;2.83;100.00
28310;BME280;15571;50.974;13.936;2023-02-11T06:03:45;101536.50;;;2.83;100.00
28310;BME280;15571;50.974;13.936;2023-02-11T06:06:49;101529.66;;;2.83;100.00
28310;BME280;15571;50.974;13.936;2023-02-11T06:09:53;101524.59;;;2.86;100.00
28310;BME280;15571;50.974;13.936;2023-02-11T06:12:55;101520.25;;;2.85;100.00
28310;BME280;15571;50.974;13.936;2023-02-11T06:15:57;101518.47;;;2.84;100.00
28310;BME280;15571;50.974;13.936;2023-02-11T06:18:59;101524.47;;;2.83;100.00
28310;BME280;15571;50.974;13.936;2023-02-11T06:22:07;101515.75;;;2.81;100.00
28310;BME280;15571;50.974;13.936;2023-02-11T06:25:11;101519.31;;;2.83;100.00
28310;BME280;15571;50.974;13.936;2023-02-11T06:28:15;101515.88;;;2.84;100.00
28310;BME280;15571;50.974;13.936;2023-02-11T06:31:17;101514.13;;;2.83;100.00
28310;BME280;15571;50.974;13.936;2023-02-11T06:34:19;101513.28;;;2.84;100.00
28310;BME280;15571;50.974;13.936;2023-02-11T06:37:21;101515.88;;;2.84;100.00
28310;BME280;15571;50.974;13.936;2023-02-11T06:40:27;101515.00;;;2.84;100.00
28310;BME280;15571;50.974;13.936;2023-02-11T06:43:31;101517.66;;;2.85;100.00
28310;BME280;15571;50.974;13.936;2023-02-11T06:46:33;101515.06;;;2.85;100.00
28310;BME280;15571;50.974;13.936;2023-02-11T06:49:35;101510.88;;;2.87;100.00
28310;BME280;15571;50.974;13.936;2023-02-11T06:52:37;101512.63;;;2.88;100.00
28310;BME280;15571;50.974;13.936;2023-02-11T06:55:40;101512.63;;;2.88;100.00
28310;BME280;15571;50.974;13.936;2023-02-11T06:58:42;101517.88;;;2.90;100.00
28310;BME280;15571;50.974;13.936;2023-02-11T07:01:44;101500.81;;;2.93;100.00
28310;BME280;15571;50.974;13.936;2023-02-11T07:04:46;101499.09;;;2.94;100.00
28310;BME280;15571;50.974;13.936;2023-02-11T07:07:48;101499.91;;;2.93;100.00
28310;BME280;15571;50.974;13.936;2023-02-11T07:10:54;101504.28;;;2.94;100.00
28310;BME280;15571;50.974;13.936;2023-02-11T07:14:05;101505.25;;;2.96;100.00
28310;BME280;15571;50.974;13.936;2023-02-11T07:17:07;101506.13;;;2.96;100.00
28310;BME280;15571;50.974;13.936;2023-02-11T07:20:09;101504.44;;;2.97;100.00
28310;BME280;15571;50.974;13.936;2023-02-11T07:23:14;101512.19;;;2.97;100.00
28310;BME280;15571;50.974;13.936;2023-02-11T07:26:18;101513.97;;;2.98;100.00
28310;BME280;15571;50.974;13.936;2023-02-11T07:29:23;101505.56;;;3.04;100.00
28310;BME280;15571;50.974;13.936;2023-02-11T07:32:25;101515.13;;;3.05;100.00
28310;BME280;15571;50.974;13.936;2023-02-11T07:35:27;101525.63;;;3.08;100.00
28310;BME280;15571;50.974;13.936;2023-02-11T07:38:29;101531.75;;;3.10;100.00
28310;BME280;15571;50.974;13.936;2023-02-11T07:41:36;101524.75;;;3.07;100.00
28310;BME280;15571;50.974;13.936;2023-02-11T07:44:38;101515.41;;;3.11;100.00
28310;BME280;15571;50.974;13.936;2023-02-11T07:47:42;101518.81;;;3.10;100.00
28310;BME280;15571;50.974;13.936;2023-02-11T07:50:54;101524.84;;;3.10;100.00
28310;BME280;15571;50.974;13.936;2023-02-11T07:53:59;101509.53;;;3.15;100.00
28310;BME280;15571;50.974;13.936;2023-02-11T07:57:06;101515.84;;;3.20;100.00
28310;BME280;15571;50.974;13.936;2023-02-11T08:00:09;101509.03;;;3.22;100.00
28310;BME280;15571;50.974;13.936;2023-02-11T08:03:17;101509.84;;;3.21;100.00
28310;BME280;15571;50.974;13.936;2023-02-11T08:06:20;101515.94;;;3.23;100.00
28310;BME280;15571;50.974;13.936;2023-02-11T08:09:22;101519.50;;;3.25;100.00
28310;BME280;15571;50.974;13.936;2023-02-11T08:12:28;101510.09;;;3.27;100.00
28310;BME280;15571;50.974;13.936;2023-02-11T08:15:33;101504.13;;;3.29;100.00
28310;BME280;15571;50.974;13.936;2023-02-11T08:18:36;101486.97;;;3.31;100.00
28310;BME280;15571;50.974;13.936;2023-02-11T08:21:38;101501.69;;;3.32;100.00
28310;BME280;15571;50.974;13.936;2023-02-11T08:24:46;101506.09;;;3.34;100.00
28310;BME280;15571;50.974;13.936;2023-02-11T08:27:51;101508.69;;;3.34;100.00
28310;BME280;15571;50.974;13.936;2023-02-11T08:30:53;101514.72;;;3.35;100.00
28310;BME280;15571;50.974;13.936;2023-02-11T08:33:58;101515.69;;;3.37;100.00
28310;BME280;15571;50.974;13.936;2023-02-11T08:37:02;101512.50;;;3.42;100.00
28310;BME280;15571;50.974;13.936;2023-02-11T08:40:04;101504.78;;;3.44;100.00
28310;BME280;15571;50.974;13.936;2023-02-11T08:43:07;101509.31;;;3.48;100.00
28310;BME280;15571;50.974;13.936;2023-02-11T08:46:11;101507.66;;;3.50;100.00
28310;BME280;15571;50.974;13.936;2023-02-11T08:49:13;101504.25;;;3.51;100.00
28310;BME280;15571;50.974;13.936;2023-02-11T08:52:15;101504.19;;;3.50;100.00
28310;BME280;15571;50.974;13.936;2023-02-11T08:55:20;101507.88;;;3.55;100.00
28310;BME280;15571;50.974;13.936;2023-02-11T08:58:24;101504.47;;;3.56;100.00
28310;BME280;15571;50.974;13.936;2023-02-11T09:01:27;101506.28;;;3.58;100.00
28310;BME280;15571;50.974;13.936;2023-02-11T09:04:29;101514.94;;;3.59;100.00
28310;BME280;15571;50.974;13.936;2023-02-11T09:07:31;101513.25;;;3.60;100.00
28310;BME280;15571;50.974;13.936;2023-02-11T09:10:36;101527.16;;;3.62;100.00
28310;BME280;15571;50.974;13.936;2023-02-11T09:13:41;101527.16;;;3.62;100.00
28310;BME280;15571;50.974;13.936;2023-02-11T09:16:45;101528.09;;;3.64;100.00
28310;BME280;15571;50.974;13.936;2023-02-11T09:19:47;101537.72;;;3.66;100.00
28310;BME280;15571;50.974;13.936;2023-02-11T09:22:51;101518.00;;;3.70;100.00
28310;BME280;15571;50.974;13.936;2023-02-11T09:25:53;101514.72;;;3.74;100.00
28310;BME280;15571;50.974;13.936;2023-02-11T09:28:56;101522.47;;;3.74;100.00
28310;BME280;15571;50.974;13.936;2023-02-11T09:32:00;101533.81;;;3.76;100.00
28310;BME280;15571;50.974;13.936;2023-02-11T09:35:04;101529.59;;;3.78;100.00
28310;BME280;15571;50.974;13.936;2023-02-11T09:38:07;101528.78;;;3.79;100.00
28310;BME280;15571;50.974;13.936;2023-02-11T09:41:30;101542.69;;;3.81;100.00
28310;BME280;15571;50.974;13.936;2023-02-11T09:44:37;101540.97;;;3.82;100.00
28310;BME280;15571;50.974;13.936;2023-02-11T09:47:41;101530.53;;;3.80;100.00
28310;BME280;15571;50.974;13.936;2023-02-11T09:50:46;101524.59;;;3.83;100.00
28310;BME280;15571;50.974;13.936;2023-02-11T09:53:51;101526.44;;;3.85;100.00
28310;BME280;15571;50.974;13.936;2023-02-11T09:56:57;101523.97;;;3.88;100.00
28310;BME280;15571;50.974;13.936;2023-02-11T10:00:00;101515.41;;;3.89;100.00
28310;BME280;15571;50.974;13.936;2023-02-11T10:06:39;101520.78;;;3.94;100.00
28310;BME280;15571;50.974;13.936;2023-02-11T10:09:48;101524.38;;;3.98;100.00
28310;BME280;15571;50.974;13.936;2023-02-11T10:12:59;101515.03;;;4.01;100.00
28310;BME280;15571;50.974;13.936;2023-02-11T10:16:17;101514.16;;;4.01;100.00
28310;BME280;15571;50.974;13.936;2023-02-11T10:19:28;101516.78;;;4.02;100.00
28310;BME280;15571;50.974;13.936;2023-02-11T10:22:31;101518.66;;;4.07;100.00
28310;BME280;15571;50.974;13.936;2023-02-11T10:25:36;101509.41;;;4.12;100.00
28310;BME280;15571;50.974;13.936;2023-02-11T10:28:43;101510.34;;;4.14;100.00
28310;BME280;15571;50.974;13.936;2023-02-11T10:31:47;101495.69;;;4.14;100.00
28310;BME280;15571;50.974;13.936;2023-02-11T10:34:51;101501.88;;;4.18;100.00
28310;BME280;15571;50.974;13.936;2023-02-11T10:37:58;101499.38;;;4.19;100.00
28310;BME280;15571;50.974;13.936;2023-02-11T10:41:02;101502.00;;;4.21;100.00
28310;BME280;15571;50.974;13.936;2023-02-11T10:44:05;101522.88;;;4.24;100.00
28310;BME280;15571;50.974;13.936;2023-02-11T10:47:10;101515.97;;;4.25;100.00
28310;BME280;15571;50.974;13.936;2023-02-11T10:50:19;101507.56;;;4.30;100.00
28310;BME280;15571;50.974;13.936;2023-02-11T10:53:22;101493.09;;;4.35;100.00
28310;BME280;15571;50.974;13.936;2023-02-11T10:56:25;101475.81;;;4.36;100.00
28310;BME280;15571;50.974;13.936;2023-02-11T10:59:30;101483.59;;;4.36;100.00
28310;BME280;15571;50.974;13.936;2023-02-11T11:02:37;101487.25;;;4.41;100.00
28310;BME280;15571;50.974;13.936;2023-02-11T11:05:47;101480.59;;;4.48;100.00
28310;BME280;15571;50.974;13.936;2023-02-11T11:08:50;101477.28;;;4.50;100.00
28310;BME280;15571;50.974;13.936;2023-02-11T11:11:52;101472.13;;;4.52;100.00
28310;BME280;15571;50.974;13.936;2023-02-11T11:14:54;101474.91;;;4.57;100.00
28310;BME280;15571;50.974;13.936;2023-02-11T11:18:16;101480.22;;;4.60;100.00
28310;BME280;15571;50.974;13.936;2023-02-11T11:21:20;101473.50;;;4.65;100.00
28310;BME280;15571;50.974;13.936;2023-02-11T11:24:24;101472.63;;;4.64;100.00
28310;BME280;15571;50.974;13.936;2023-02-11T11:27:28;101477.03;;;4.67;100.00
28310;BME280;15571;50.974;13.936;2023-02-11T11:30:31;101477.16;;;4.70;100.00
28310;BME280;15571;50.974;13.936;2023-02-11T11:33:39;101472.06;;;4.73;100.00
28310;BME280;15571;50.974;13.936;2023-02-11T11:36:42;101471.25;;;4.74;100.00
28310;BME280;15571;50.974;13.936;2023-02-11T11:39:47;101474.75;;;4.75;100.00
28310;BME280;15571;50.974;13.936;2023-02-11T11:43:00;101474.06;;;4.80;100.00
28310;BME280;15571;50.974;13.936;2023-02-11T11:46:04;101464.59;;;4.81;100.00
28310;BME280;15571;50.974;13.936;2023-02-11T11:49:12;101485.56;;;4.87;100.00
28310;BME280;15571;50.974;13.936;2023-02-11T11:52:28;101484.69;;;4.87;100.00
28310;BME280;15571;50.974;13.936;2023-02-11T11:55:35;101474.44;;;4.90;100.00
28310;BME280;15571;50.974;13.936;2023-02-11T11:58:39;101481.38;;;4.91;100.00
28310;BME280;15571;50.974;13.936;2023-02-11T12:01:44;101491.06;;;4.95;100.00
28310;BME280;15571;50.974;13.936;2023-02-11T12:04:54;101489.41;;;4.97;100.00
28310;BME280;15571;50.974;13.936;2023-02-11T12:08:02;101492.09;;;5.00;100.00
28310;BME280;15571;50.974;13.936;2023-02-11T12:11:11;101486.16;;;5.03;100.00
28310;BME280;15571;50.974;13.936;2023-02-11T12:14:22;101486.16;;;5.03;100.00
28310;BME280;15571;50.974;13.936;2023-02-11T12:17:34;101496.59;;;5.04;100.00
28310;BME280;15571;50.974;13.936;2023-02-11T12:20:48;101499.38;;;5.09;100.00
28310;BME280;15571;50.974;13.936;2023-02-11T12:24:00;101491.56;;;5.09;100.00
28310;BME280;15571;50.974;13.936;2023-02-11T12:27:05;101479.44;;;5.08;100.00
28310;BME280;15571;50.974;13.936;2023-02-11T12:30:15;101484.69;;;5.09;100.00
28310;BME280;15571;50.974;13.936;2023-02-11T12:33:23;101482.16;;;5.11;100.00
28310;BME280;15571;50.974;13.936;2023-02-11T12:36:33;101480.31;;;5.08;100.00
28310;BME280;15571;50.974;13.936;2023-02-11T12:39:48;101473.41;;;5.09;100.00
28310;BME280;15571;50.974;13.936;2023-02-11T12:42:55;101472.59;;;5.10;100.00
28310;BME280;15571;50.974;13.936;2023-02-11T12:49:47;101462.25;;;5.11;100.00
28310;BME280;15571;50.974;13.936;2023-02-11T12:53:07;101455.38;;;5.12;100.00
28310;BME280;15571;50.974;13.936;2023-02-11T12:56:14;101461.34;;;5.09;100.00
28310;BME280;15571;50.974;13.936;2023-02-11T12:59:26;101450.09;;;5.10;100.00
28310;BME280;15571;50.974;13.936;2023-02-11T13:02:38;101456.22;;;5.12;100.00
28310;BME280;15571;50.974;13.936;2023-02-11T13:05:43;101454.47;;;5.11;100.00
28310;BME280;15571;50.974;13.936;2023-02-11T13:08:51;101455.28;;;5.10;100.00
28310;BME280;15571;50.974;13.936;2023-02-11T13:11:56;101453.59;;;5.11;100.00
28310;BME280;15571;50.974;13.936;2023-02-11T13:15:24;101437.13;;;5.10;100.00
28310;BME280;15571;50.974;13.936;2023-02-11T13:18:29;101437.13;;;5.10;100.00
28310;BME280;15571;50.974;13.936;2023-02-11T13:21:47;101447.50;;;5.10;100.00
28310;BME280;15571;50.974;13.936;2023-02-11T13:24:54;101439.78;;;5.12;100.00
28310;BME280;15571;50.974;13.936;2023-02-11T13:28:02;101444.09;;;5.11;100.00
28310;BME280;15571;50.974;13.936;2023-02-11T13:31:08;101435.47;;;5.12;100.00
28310;BME280;15571;50.974;13.936;2023-02-11T13:34:24;101441.59;;;5.14;100.00
28310;BME280;15571;50.974;13.936;2023-02-11T13:37:30;101446.78;;;5.14;100.00
28310;BME280;15571;50.974;13.936;2023-02-11T13:40:37;101448.56;;;5.16;100.00
28310;BME280;15571;50.974;13.936;2023-02-11T13:43:40;101442.59;;;5.18;100.00
28310;BME280;15571;50.974;13.936;2023-02-11T13:46:46;101443.50;;;5.19;100.00
28310;BME280;15571;50.974;13.936;2023-02-11T13:49:56;101436.53;;;5.18;100.00
28310;BME280;15571;50.974;13.936;2023-02-11T13:52:59;101440.00;;;5.18;100.00
28310;BME280;15571;50.974;13.936;2023-02-11T13:56:06;101445.19;;;5.18;100.00
28310;BME280;15571;50.974;13.936;2023-02-11T14:02:29;101440.91;;;5.19;100.00
28310;BME280;15571;50.974;13.936;2023-02-11T14:09:36;101443.41;;;5.17;100.00
28310;BME280;15571;50.974;13.936;2023-02-11T14:12:40;101449.50;;;5.18;100.00
28310;BME280;15571;50.974;13.936;2023-02-11T14:15:44;101445.31;;;5.21;100.00
28310;BME280;15571;50.974;13.936;2023-02-11T14:19:00;101444.41;;;5.21;100.00
28310;BME280;15571;50.974;13.936;2023-02-11T14:22:03;101467.91;;;5.24;100.00
28310;BME280;15571;50.974;13.936;2023-02-11T14:25:14;101456.56;;;5.22;100.00
28310;BME280;15571;50.974;13.936;2023-02-11T14:28:20;101463.41;;;5.20;100.00
28310;BME280;15571;50.974;13.936;2023-02-11T14:31:24;101463.53;;;5.23;100.00
28310;BME280;15571;50.974;13.936;2023-02-11T14:34:36;101448.06;;;5.26;100.00
28310;BME280;15571;50.974;13.936;2023-02-11T14:37:42;101454.91;;;5.24;100.00
28310;BME280;15571;50.974;13.936;2023-02-11T14:40:48;101451.50;;;5.25;100.00
28310;BME280;15571;50.974;13.936;2023-02-11T14:43:56;101453.28;;;5.26;100.00
28310;BME280;15571;50.974;13.936;2023-02-11T14:46:59;101460.22;;;5.27;100.00
28310;BME280;15571;50.974;13.936;2023-02-11T14:50:01;101461.06;;;5.26;100.00
28310;BME280;15571;50.974;13.936;2023-02-11T14:53:03;101457.63;;;5.27;100.00
28310;BME280;15571;50.974;13.936;2023-02-11T14:56:14;101455.03;;;5.27;100.00
28310;BME280;15571;50.974;13.936;2023-02-11T14:59:19;101459.31;;;5.26;100.00
28310;BME280;15571;50.974;13.936;2023-02-11T15:02:27;101463.66;;;5.26;100.00
28310;BME280;15571;50.974;13.936;2023-02-11T15:05:29;101454.09;;;5.25;100.00
28310;BME280;15571;50.974;13.936;2023-02-11T15:08:32;101455.03;;;5.27;100.00
28310;BME280;15571;50.974;13.936;2023-02-11T15:11:40;101455.78;;;5.24;100.00
28310;BME280;15571;50.974;13.936;2023-02-11T15:14:45;101455.03;;;5.27;100.00
28310;BME280;15571;50.974;13.936;2023-02-11T15:17:51;101454.91;;;5.24;100.00
28310;BME280;15571;50.974;13.936;2023-02-11T15:20:53;101457.63;;;5.27;100.00
28310;BME280;15571;50.974;13.936;2023-02-11T15:23:56;101462.81;;;5.27;100.00
28310;BME280;15571;50.974;13.936;2023-02-11T15:27:00;101456.81;;;5.28;100.00
28310;BME280;15571;50.974;13.936;2023-02-11T15:30:24;101455.13;;;5.30;100.00
28310;BME280;15571;50.974;13.936;2023-02-11T15:33:28;101469.84;;;5.29;100.00
28310;BME280;15571;50.974;13.936;2023-02-11T15:36:31;101481.16;;;5.32;100.00
28310;BME280;15571;50.974;13.936;2023-02-11T15:39:36;101481.22;;;5.33;100.00
28310;BME280;15571;50.974;13.936;2023-02-11T15:42:51;101483.81;;;5.33;100.00
28310;BME280;15571;50.974;13.936;2023-02-11T15:45:56;101484.75;;;5.35;100.00
28310;BME280;15571;50.974;13.936;2023-02-11T15:48:59;101475.25;;;5.36;100.00
28310;BME280;15571;50.974;13.936;2023-02-11T15:52:01;101483.09;;;5.37;100.00
28310;BME280;15571;50.974;13.936;2023-02-11T15:55:03;101463.97;;;5.35;100.00
28310;BME280;15571;50.974;13.936;2023-02-11T15:58:08;101461.50;;;5.38;100.00
28310;BME280;15571;50.974;13.936;2023-02-11T16:01:12;101463.97;;;5.35;100.00
28310;BME280;15571;50.974;13.936;2023-02-11T16:04:15;101457.13;;;5.37;100.00
28310;BME280;15571;50.974;13.936;2023-02-11T16:07:39;101467.53;;;5.37;100.00
28310;BME280;15571;50.974;13.936;2023-02-11T16:10:51;101467.53;;;5.37;100.00